createdAt,value
2022-08-26T00:01:33.143Z,4.70
2022-08-26T00:04:02.303Z,4.80
2022-08-26T00:06:30.466Z,7.68
2022-08-26T00:08:57.505Z,17.33
2022-08-26T00:11:26.847Z,18.87
2022-08-26T00:13:55.560Z,12.85
2022-08-26T00:16:24.692Z,6.55
2022-08-26T00:18:50.970Z,5.53
2022-08-26T00:21:17.236Z,4.75
2022-08-26T00:23:44.132Z,4.85
2022-08-26T00:26:11.006Z,5.43
2022-08-26T00:28:37.438Z,5.82
2022-08-26T00:31:03.823Z,6.05
2022-08-26T00:33:31.109Z,5.65
2022-08-26T00:35:58.362Z,6.18
2022-08-26T00:38:25.413Z,6.05
2022-08-26T00:40:54.284Z,16.60
2022-08-26T00:43:21.696Z,11.80
2022-08-26T00:46:08.513Z,6.00
2022-08-26T00:48:35.668Z,5.62
2022-08-26T00:51:05.939Z,4.50
2022-08-26T00:53:35.137Z,24.33
2022-08-26T00:57:15.811Z,4.82
2022-08-26T00:59:43.362Z,15.40
2022-08-26T01:02:09.652Z,4.85
2022-08-26T01:04:55.577Z,7.97
2022-08-26T01:07:25.634Z,15.35
2022-08-26T01:09:51.857Z,4.75
2022-08-26T01:12:22.174Z,4.35
2022-08-26T01:14:49.555Z,4.18
2022-08-26T01:17:15.852Z,4.25
2022-08-26T01:19:45.824Z,6.80
2022-08-26T01:22:21.241Z,6.35
2022-08-26T01:24:53.846Z,4.12
2022-08-26T01:27:23.606Z,4.35
2022-08-26T01:29:49.890Z,4.20
2022-08-26T01:32:19.174Z,4.30
2022-08-26T01:34:46.550Z,4.55
2022-08-26T01:37:20.278Z,4.47
2022-08-26T01:39:50.784Z,4.93
2022-08-26T01:42:18.542Z,5.65
2022-08-26T01:44:53.554Z,7.43
2022-08-26T01:47:21.019Z,5.53
2022-08-26T01:49:49.261Z,4.45
2022-08-26T01:52:23.294Z,4.03
2022-08-26T01:54:54.834Z,4.18
2022-08-26T01:57:22.089Z,4.95
2022-08-26T01:59:50.975Z,4.15
2022-08-26T02:02:17.225Z,4.20
2022-08-26T02:04:48.348Z,4.43
2022-08-26T02:07:18.369Z,4.37
2022-08-26T02:09:44.708Z,3.87
2022-08-26T02:12:11.335Z,4.07
2022-08-26T02:14:43.686Z,4.68
2022-08-26T02:17:11.413Z,3.65
2022-08-26T02:19:40.597Z,3.75
2022-08-26T02:22:10.967Z,3.85
2022-08-26T02:24:56.119Z,3.83
2022-08-26T02:27:26.100Z,3.78
2022-08-26T02:30:06.648Z,5.18
2022-08-26T02:32:32.935Z,10.02
2022-08-26T02:35:01.599Z,16.15
2022-08-26T02:37:29.690Z,4.72
2022-08-26T02:39:55.978Z,4.18
2022-08-26T02:42:23.287Z,3.97
2022-08-26T02:44:49.838Z,4.12
2022-08-26T02:47:16.192Z,4.50
2022-08-26T02:49:44.338Z,5.87
2022-08-26T02:52:13.565Z,23.95
2022-08-26T02:54:41.332Z,5.65
2022-08-26T02:57:08.897Z,5.03
2022-08-26T02:59:36.369Z,4.75
2022-08-26T03:02:03.331Z,3.75
2022-08-26T03:04:33.492Z,4.15
2022-08-26T03:07:01.088Z,4.50
2022-08-26T03:09:28.236Z,4.90
2022-08-26T03:11:55.413Z,4.90
2022-08-26T03:14:25.107Z,4.70
2022-08-26T03:16:53.275Z,4.45
2022-08-26T03:19:21.294Z,3.80
2022-08-26T03:21:50.220Z,3.80
2022-08-26T03:24:19.087Z,3.70
2022-08-26T03:26:52.178Z,4.90
2022-08-26T03:29:39.621Z,5.22
2022-08-26T03:32:05.977Z,4.80
2022-08-26T03:34:32.216Z,4.07
2022-08-26T03:36:59.580Z,24.92
2022-08-26T03:39:25.850Z,15.48
2022-08-26T03:41:52.104Z,3.70
2022-08-26T03:44:20.480Z,3.50
2022-08-26T03:46:49.147Z,3.70
2022-08-26T03:49:15.585Z,4.00
2022-08-26T03:51:42.172Z,3.65
2022-08-26T03:54:08.699Z,3.62
2022-08-26T03:56:35.921Z,3.75
2022-08-26T03:59:02.326Z,4.03
2022-08-26T04:01:31.815Z,3.85
2022-08-26T04:04:00.413Z,10.90
2022-08-26T04:06:34.915Z,16.15
2022-08-26T04:09:04.211Z,8.38
2022-08-26T04:11:34.176Z,9.88
2022-08-26T04:14:05.879Z,5.15
2022-08-26T04:16:32.136Z,4.60
2022-08-26T04:18:59.143Z,5.60
2022-08-26T04:21:25.557Z,5.32
2022-08-26T04:23:53.673Z,5.32
2022-08-26T04:26:20.749Z,3.80
2022-08-26T04:28:48.344Z,4.10
2022-08-26T04:31:16.038Z,3.53
2022-08-26T04:33:44.371Z,3.33
2022-08-26T04:36:12.764Z,3.53
2022-08-26T04:38:39.010Z,3.53
2022-08-26T04:41:14.926Z,3.50
2022-08-26T04:43:41.970Z,3.45
2022-08-26T04:46:09.238Z,3.75
2022-08-26T04:48:40.358Z,3.58
2022-08-26T04:51:06.610Z,3.67
2022-08-26T04:53:32.832Z,3.87
2022-08-26T04:56:01.270Z,3.72
2022-08-26T04:58:30.331Z,5.53
2022-08-26T05:00:56.605Z,11.95
2022-08-26T05:03:24.065Z,4.10
2022-08-26T05:05:50.426Z,4.00
2022-08-26T05:08:18.365Z,3.90
2022-08-26T05:10:48.127Z,3.85
2022-08-26T05:13:17.226Z,4.07
2022-08-26T05:15:48.405Z,4.75
2022-08-26T05:18:17.586Z,5.10
2022-08-26T05:20:48.292Z,5.10
2022-08-26T05:23:15.072Z,4.75
2022-08-26T05:25:44.443Z,4.90
2022-08-26T05:28:11.513Z,4.30
2022-08-26T05:30:39.406Z,4.22
2022-08-26T05:33:08.540Z,5.87
2022-08-26T05:35:35.374Z,7.32
2022-08-26T05:38:01.942Z,9.00
2022-08-26T05:40:28.338Z,8.85
2022-08-26T05:42:55.838Z,7.68
2022-08-26T05:45:25.630Z,8.05
2022-08-26T05:47:52.382Z,7.65
2022-08-26T05:50:22.905Z,7.93
2022-08-26T05:52:49.917Z,7.60
2022-08-26T05:55:16.720Z,7.62
2022-08-26T05:57:45.318Z,8.23
2022-08-26T06:00:13.635Z,6.68
2022-08-26T06:02:39.987Z,5.72
2022-08-26T06:05:08.822Z,4.43
2022-08-26T06:07:54.071Z,4.43
2022-08-26T06:10:32.026Z,4.57
2022-08-26T06:13:09.135Z,5.07
2022-08-26T06:15:42.016Z,5.50
2022-08-26T06:18:08.691Z,5.40
2022-08-26T06:20:36.593Z,6.50
2022-08-26T06:23:23.296Z,8.95
2022-08-26T06:25:50.183Z,7.18
2022-08-26T06:28:17.325Z,4.25
2022-08-26T06:30:44.510Z,3.45
2022-08-26T06:33:11.395Z,4.07
2022-08-26T06:35:39.528Z,4.30
2022-08-26T06:38:05.816Z,5.50
2022-08-26T06:40:32.433Z,6.68
2022-08-26T06:42:58.783Z,4.00
2022-08-26T06:45:25.060Z,4.20
2022-08-26T06:47:53.090Z,4.35
2022-08-26T06:50:19.430Z,8.88
2022-08-26T06:52:46.261Z,15.45
2022-08-26T06:55:12.833Z,7.80
2022-08-26T06:57:39.733Z,11.88
2022-08-26T07:00:11.975Z,8.65
2022-08-26T07:02:39.032Z,9.18
2022-08-26T07:05:07.293Z,10.18
2022-08-26T07:07:34.193Z,18.08
2022-08-26T07:10:01.604Z,11.57
2022-08-26T07:12:28.726Z,9.77
2022-08-26T07:14:55.102Z,14.65
2022-08-26T07:17:24.932Z,11.23
2022-08-26T07:19:53.612Z,7.97
2022-08-26T07:22:19.918Z,11.60
2022-08-26T07:24:47.741Z,20.55
2022-08-26T07:27:15.303Z,13.88
2022-08-26T07:29:43.071Z,20.40
2022-08-26T07:32:09.388Z,37.78
2022-08-26T07:34:38.485Z,25.83
2022-08-26T07:37:05.302Z,19.45
2022-08-26T07:39:35.716Z,18.25
2022-08-26T07:42:07.605Z,18.95
2022-08-26T07:44:38.137Z,21.87
2022-08-26T07:47:10.553Z,24.20
2022-08-26T07:49:54.202Z,9.98
2022-08-26T07:52:25.990Z,9.93
2022-08-26T07:54:53.622Z,6.80
2022-08-26T07:57:20.545Z,6.50
2022-08-26T07:59:47.521Z,5.62
2022-08-26T08:02:14.280Z,6.07
2022-08-26T08:04:40.637Z,7.55
2022-08-26T08:07:07.536Z,7.87
2022-08-26T08:09:38.090Z,5.93
2022-08-26T08:12:07.588Z,6.05
2022-08-26T08:14:36.909Z,6.40
2022-08-26T08:17:04.395Z,6.82
2022-08-26T08:19:38.937Z,8.88
2022-08-26T08:22:16.964Z,6.57
2022-08-26T08:24:45.006Z,7.55
2022-08-26T08:27:11.674Z,8.68
2022-08-26T08:29:38.290Z,24.12
2022-08-26T08:32:06.119Z,9.93
2022-08-26T08:37:08.739Z,8.02
2022-08-26T08:39:37.323Z,36.70
2022-08-26T08:42:44.355Z,26.73
2022-08-26T08:46:44.731Z,13.62
2022-08-26T08:49:12.765Z,11.80
2022-08-26T08:51:56.680Z,7.97
2022-08-26T08:54:25.993Z,8.05
2022-08-26T08:57:11.639Z,8.32
2022-08-26T08:59:41.610Z,11.82
2022-08-26T09:02:47.082Z,25.67
2022-08-26T09:05:22.655Z,31.58
2022-08-26T09:08:24.400Z,44.67
2022-08-26T09:10:56.021Z,41.22
2022-08-26T09:13:26.137Z,40.78
2022-08-26T09:19:37.291Z,43.42
2022-08-26T09:22:08.751Z,31.35
2022-08-26T09:24:41.818Z,40.67
2022-08-26T09:27:45.851Z,33.60
2022-08-26T09:30:35.748Z,15.73
2022-08-26T09:33:10.975Z,15.57
2022-08-26T09:35:40.319Z,14.45
2022-08-26T09:38:28.146Z,13.40
2022-08-26T09:41:05.140Z,14.98
2022-08-26T09:43:32.066Z,15.05
2022-08-26T09:46:22.626Z,14.77
2022-08-26T09:48:51.796Z,14.38
2022-08-26T09:51:31.226Z,15.35
2022-08-26T09:54:02.330Z,14.18
2022-08-26T09:56:33.924Z,14.27
2022-08-26T09:59:01.217Z,14.38
2022-08-26T10:01:43.597Z,16.42
2022-08-26T10:04:22.395Z,12.77
2022-08-26T10:07:00.626Z,22.17
2022-08-26T10:09:28.125Z,19.70
2022-08-26T10:11:58.459Z,13.82
2022-08-26T10:14:33.471Z,13.02
2022-08-26T10:17:06.840Z,14.50
2022-08-26T10:19:57.835Z,14.20
2022-08-26T10:23:48.073Z,13.62
2022-08-26T10:27:02.176Z,12.90
2022-08-26T10:29:39.728Z,12.00
2022-08-26T10:32:31.201Z,9.93
2022-08-26T10:34:58.347Z,17.02
2022-08-26T10:37:29.277Z,27.65
2022-08-26T10:40:06.967Z,17.05
2022-08-26T10:42:53.335Z,28.50
2022-08-26T10:45:24.631Z,25.67
2022-08-26T10:48:12.228Z,24.37
2022-08-26T10:50:43.819Z,20.88
2022-08-26T10:53:25.251Z,23.52
2022-08-26T10:56:06.822Z,14.45
2022-08-26T10:59:00.949Z,23.58
2022-08-26T11:04:58.013Z,13.90
2022-08-26T11:07:45.496Z,11.65
2022-08-26T11:10:57.970Z,16.87
2022-08-26T11:16:03.247Z,11.38
2022-08-26T11:18:39.588Z,16.87
2022-08-26T11:26:55.542Z,14.73
2022-08-26T11:33:13.434Z,17.85
2022-08-26T11:35:46.170Z,24.77
2022-08-26T11:38:27.765Z,28.87
2022-08-26T11:41:07.386Z,25.75
2022-08-26T11:43:35.024Z,33.08
2022-08-26T11:46:06.140Z,21.73
2022-08-26T11:48:36.337Z,31.20
2022-08-26T11:51:40.910Z,25.80
2022-08-26T11:54:13.534Z,24.05
2022-08-26T11:56:41.591Z,28.50
2022-08-26T11:59:09.833Z,24.60
2022-08-26T12:01:41.070Z,34.95
2022-08-26T12:04:08.909Z,31.55
2022-08-26T12:06:43.435Z,31.75
2022-08-26T12:09:24.135Z,27.87
2022-08-26T12:11:50.473Z,30.92
2022-08-26T12:14:24.166Z,22.02
2022-08-26T12:16:50.838Z,26.58
2022-08-26T12:19:50.507Z,25.15
2022-08-26T12:22:34.455Z,32.05
2022-08-26T12:25:06.931Z,26.58
2022-08-26T12:27:42.396Z,32.17
2022-08-26T12:30:24.144Z,29.98
2022-08-26T12:33:03.759Z,27.50
2022-08-26T12:35:51.569Z,24.10
2022-08-26T12:38:22.075Z,30.00
2022-08-26T12:40:50.013Z,28.80
2022-08-26T12:43:38.003Z,30.15
2022-08-26T12:46:06.754Z,30.05
2022-08-26T12:48:38.057Z,30.83
2022-08-26T12:51:07.449Z,27.92
2022-08-26T12:53:35.312Z,29.40
2022-08-26T12:56:04.170Z,28.67
2022-08-26T12:58:36.139Z,21.40
2022-08-26T13:01:24.711Z,27.52
2022-08-26T13:03:52.073Z,20.10
2022-08-26T13:06:31.672Z,15.80
2022-08-26T13:09:47.798Z,35.63
2022-08-26T13:12:31.807Z,26.10
2022-08-26T13:14:59.807Z,25.62
2022-08-26T13:17:27.657Z,24.23
2022-08-26T13:19:54.184Z,17.95
2022-08-26T13:22:23.626Z,18.73
2022-08-26T13:24:54.848Z,21.92
2022-08-26T13:27:23.447Z,29.98
2022-08-26T13:29:50.978Z,35.17
2022-08-26T13:32:18.225Z,30.27
2022-08-26T13:34:50.635Z,39.92
2022-08-26T13:37:19.500Z,34.38
2022-08-26T13:39:47.044Z,32.63
2022-08-26T13:42:13.538Z,32.20
2022-08-26T13:44:43.084Z,30.10
2022-08-26T13:47:09.982Z,29.80
2022-08-26T13:49:36.775Z,31.70
2022-08-26T13:52:03.979Z,20.80
2022-08-26T13:54:30.760Z,28.42
2022-08-26T13:56:57.522Z,24.73
2022-08-26T13:59:23.951Z,23.85
2022-08-26T14:01:50.565Z,17.92
2022-08-26T14:04:17.205Z,17.77
2022-08-26T14:06:49.322Z,24.98
2022-08-26T14:09:16.005Z,26.98
2022-08-26T14:11:54.131Z,18.92
2022-08-26T14:14:22.700Z,17.67
2022-08-26T14:16:58.918Z,16.52
2022-08-26T14:19:29.797Z,10.00
2022-08-26T14:21:56.735Z,10.60
2022-08-26T14:24:23.483Z,13.48
2022-08-26T14:26:50.056Z,15.00
2022-08-26T14:29:17.267Z,15.00
2022-08-26T14:31:44.307Z,14.20
2022-08-26T14:34:11.662Z,11.55
2022-08-26T14:36:38.036Z,12.27
2022-08-26T14:39:06.998Z,11.88
2022-08-26T14:41:35.162Z,14.38
2022-08-26T14:44:07.243Z,13.93
2022-08-26T14:46:38.753Z,12.37
2022-08-26T14:49:09.871Z,11.85
2022-08-26T14:51:38.298Z,9.50
2022-08-26T14:54:13.887Z,9.35
2022-08-26T14:56:51.373Z,6.72
2022-08-26T14:59:21.559Z,8.38
2022-08-26T15:01:48.093Z,6.68
2022-08-26T15:04:15.060Z,6.20
2022-08-26T15:06:41.381Z,6.28
2022-08-26T15:09:08.312Z,6.10
2022-08-26T15:11:35.656Z,5.72
2022-08-26T15:14:03.151Z,7.00
2022-08-26T15:16:29.558Z,6.12
2022-08-26T15:18:56.490Z,4.85
2022-08-26T15:21:23.740Z,5.43
2022-08-26T15:23:50.181Z,5.35
2022-08-26T15:26:17.318Z,5.35
2022-08-26T15:28:43.699Z,5.97
2022-08-26T15:31:10.264Z,5.15
2022-08-26T15:33:37.959Z,5.03
2022-08-26T15:36:05.316Z,4.87
2022-08-26T15:38:33.197Z,5.10
2022-08-26T15:41:02.926Z,4.95
2022-08-26T15:43:30.165Z,4.68
2022-08-26T15:45:56.536Z,4.78
2022-08-26T15:48:24.320Z,4.70
2022-08-26T15:50:53.023Z,4.40
2022-08-26T15:53:19.583Z,4.03
2022-08-26T15:55:46.608Z,4.70
2022-08-26T15:58:14.570Z,4.93
2022-08-26T16:00:42.841Z,8.40
2022-08-26T16:03:09.218Z,7.37
2022-08-26T16:05:39.911Z,8.35
2022-08-26T16:08:06.820Z,7.40
2022-08-26T16:10:33.947Z,7.97
2022-08-26T16:13:00.218Z,8.18
2022-08-26T16:15:26.652Z,8.80
2022-08-26T16:17:53.039Z,8.60
2022-08-26T16:20:19.412Z,9.43
2022-08-26T16:22:45.770Z,8.52
2022-08-26T16:25:12.129Z,8.50
2022-08-26T16:27:38.587Z,7.22
2022-08-26T16:30:09.820Z,6.93
2022-08-26T16:32:36.104Z,8.75
2022-08-26T16:35:02.412Z,9.45
2022-08-26T16:37:28.718Z,9.10
2022-08-26T16:39:55.169Z,9.45
2022-08-26T16:42:21.562Z,9.32
2022-08-26T16:44:47.920Z,10.63
2022-08-26T16:47:15.438Z,12.02
2022-08-26T16:49:41.910Z,12.45
2022-08-26T16:52:08.527Z,12.95
2022-08-26T16:54:35.261Z,13.15
2022-08-26T16:57:01.896Z,13.40
2022-08-26T16:59:28.262Z,12.40
2022-08-26T17:01:54.718Z,10.18
2022-08-26T17:04:21.746Z,8.18
2022-08-26T17:06:48.181Z,5.25
2022-08-26T17:09:14.615Z,4.65
2022-08-26T17:11:40.950Z,4.30
2022-08-26T17:14:07.430Z,4.78
2022-08-26T17:16:33.853Z,5.72
2022-08-26T17:19:00.494Z,6.28
2022-08-26T17:21:27.810Z,7.18
2022-08-26T17:23:54.355Z,6.93
2022-08-26T17:26:20.664Z,7.22
2022-08-26T17:28:46.938Z,6.57
2022-08-26T17:31:13.348Z,6.97
2022-08-26T17:33:39.796Z,7.57
2022-08-26T17:36:07.338Z,7.50
2022-08-26T17:38:33.840Z,6.62
2022-08-26T17:41:00.259Z,6.43
2022-08-26T17:43:26.603Z,6.60
2022-08-26T17:46:07.038Z,6.37
2022-08-26T17:48:35.900Z,5.30
2022-08-26T17:51:11.453Z,4.90
2022-08-26T17:53:38.264Z,5.45
2022-08-26T17:56:09.217Z,6.07
2022-08-26T17:58:40.152Z,5.32
2022-08-26T18:01:06.632Z,5.45
2022-08-26T18:03:32.997Z,5.10
2022-08-26T18:05:59.335Z,5.80
2022-08-26T18:08:25.572Z,6.22
2022-08-26T18:10:51.899Z,6.18
2022-08-26T18:13:18.266Z,6.20
2022-08-26T18:15:45.779Z,6.45
2022-08-26T18:18:14.933Z,6.30
2022-08-26T18:20:42.030Z,7.15
2022-08-26T18:23:08.384Z,6.70
2022-08-26T18:25:42.900Z,6.35
2022-08-26T18:28:09.976Z,7.57
2022-08-26T18:30:36.744Z,7.05
2022-08-26T18:33:03.543Z,7.53
2022-08-26T18:35:30.184Z,7.80
2022-08-26T18:37:56.912Z,7.60
2022-08-26T18:40:24.274Z,6.40
2022-08-26T18:42:53.925Z,6.15
2022-08-26T18:45:21.778Z,5.32
2022-08-26T18:47:48.315Z,5.82
2022-08-26T18:50:15.568Z,6.10
2022-08-26T18:52:42.798Z,5.78
2022-08-26T18:55:09.164Z,5.87
2022-08-26T18:57:35.774Z,5.37
2022-08-26T19:00:04.077Z,4.80
2022-08-26T19:02:30.704Z,4.25
2022-08-26T19:05:00.130Z,4.85
2022-08-26T19:07:26.732Z,5.90
2022-08-26T19:09:54.098Z,6.00
2022-08-26T19:12:21.060Z,5.85
2022-08-26T19:14:47.466Z,6.22
2022-08-26T19:17:15.748Z,6.20
2022-08-26T19:19:43.077Z,6.15
2022-08-26T19:22:13.418Z,5.62
2022-08-26T19:24:40.659Z,5.60
2022-08-26T19:27:06.956Z,5.93
2022-08-26T19:29:35.997Z,5.60
2022-08-26T19:32:03.272Z,5.30
2022-08-26T19:34:29.750Z,5.45
2022-08-26T19:36:58.791Z,4.60
2022-08-26T19:39:25.883Z,4.35
2022-08-26T19:41:53.606Z,3.95
2022-08-26T19:44:39.504Z,4.07
2022-08-26T19:47:08.174Z,3.80
2022-08-26T19:49:34.633Z,5.15
2022-08-26T19:52:04.672Z,6.62
2022-08-26T19:54:31.965Z,5.90
2022-08-26T19:56:58.292Z,5.93
2022-08-26T19:59:24.758Z,6.72
2022-08-26T20:02:00.541Z,7.53
2022-08-26T20:04:30.081Z,8.25
2022-08-26T20:06:57.806Z,8.20
2022-08-26T20:09:28.252Z,7.90
2022-08-26T20:11:56.861Z,5.62
2022-08-26T20:14:24.973Z,6.47
2022-08-26T20:16:52.924Z,7.30
2022-08-26T20:19:37.874Z,7.35
2022-08-26T20:22:04.757Z,5.90
2022-08-26T20:24:31.996Z,5.95
2022-08-26T20:26:58.585Z,5.65
2022-08-26T20:29:28.015Z,5.47
2022-08-26T20:31:54.507Z,6.05
2022-08-26T20:34:21.468Z,5.80
2022-08-26T20:36:49.027Z,5.45
2022-08-26T20:39:18.041Z,5.57
2022-08-26T20:41:45.159Z,5.60
2022-08-26T20:44:13.016Z,5.43
2022-08-26T20:46:39.986Z,5.40
2022-08-26T20:49:07.488Z,4.70
2022-08-26T20:51:34.408Z,4.30
2022-08-26T20:54:00.985Z,4.35
2022-08-26T20:56:27.742Z,4.25
2022-08-26T20:58:55.091Z,4.72
2022-08-26T21:01:23.717Z,4.57
2022-08-26T21:03:54.066Z,4.40
2022-08-26T21:06:20.580Z,4.90
2022-08-26T21:08:48.272Z,4.78
2022-08-26T21:11:15.074Z,4.75
2022-08-26T21:14:03.491Z,4.20
2022-08-26T21:16:31.187Z,4.37
2022-08-26T21:18:58.346Z,5.50
2022-08-26T21:21:27.351Z,4.80
2022-08-26T21:23:54.942Z,4.60
2022-08-26T21:26:24.398Z,4.32
2022-08-26T21:28:50.782Z,3.85
2022-08-26T21:31:19.260Z,4.40
2022-08-26T21:33:45.880Z,4.07
2022-08-26T21:36:13.012Z,4.35
2022-08-26T21:38:40.090Z,5.15
2022-08-26T21:41:24.811Z,5.78
2022-08-26T21:43:53.802Z,6.10
2022-08-26T21:46:22.311Z,6.30
2022-08-26T21:48:56.861Z,6.57
2022-08-26T21:51:29.104Z,6.60
2022-08-26T21:53:57.725Z,5.65
2022-08-26T21:56:28.627Z,5.45
2022-08-26T21:58:55.454Z,5.28
2022-08-26T22:01:23.792Z,4.80
2022-08-26T22:03:52.209Z,4.72
2022-08-26T22:06:21.192Z,5.05
2022-08-26T22:08:47.903Z,5.05
2022-08-26T22:11:15.073Z,4.50
2022-08-26T22:13:42.354Z,4.72
2022-08-26T22:16:08.861Z,5.05
2022-08-26T22:18:35.496Z,5.53
2022-08-26T22:21:08.245Z,6.18
2022-08-26T22:23:35.051Z,6.57
2022-08-26T22:26:02.067Z,6.53
2022-08-26T22:28:28.456Z,6.80
2022-08-26T22:30:56.319Z,6.62
2022-08-26T22:33:23.069Z,6.90
2022-08-26T22:35:50.287Z,7.47
2022-08-26T22:38:16.963Z,7.03
2022-08-26T22:40:45.629Z,6.85
2022-08-26T22:43:12.743Z,6.07
2022-08-26T22:45:44.312Z,4.78
2022-08-26T22:48:11.420Z,4.62
2022-08-26T22:50:37.972Z,4.05
2022-08-26T22:53:04.286Z,4.03
2022-08-26T22:55:30.650Z,4.20
2022-08-26T22:57:57.127Z,3.95
2022-08-26T23:00:32.028Z,4.10
2022-08-26T23:02:59.071Z,4.30
2022-08-26T23:05:25.450Z,4.15
2022-08-26T23:07:51.863Z,4.20
2022-08-26T23:10:18.268Z,3.72
2022-08-26T23:12:44.591Z,3.33
2022-08-26T23:15:11.405Z,3.50
2022-08-26T23:17:38.076Z,3.42
2022-08-26T23:20:08.809Z,3.62
2022-08-26T23:22:35.212Z,3.30
2022-08-26T23:25:01.768Z,2.87
2022-08-26T23:27:35.791Z,2.92
2022-08-26T23:30:06.977Z,3.03
2022-08-26T23:32:33.277Z,2.90
2022-08-26T23:34:59.668Z,2.70
2022-08-26T23:37:31.491Z,2.60
2022-08-26T23:40:02.108Z,2.70
2022-08-26T23:42:30.471Z,2.58
2022-08-26T23:44:56.740Z,2.90
2022-08-26T23:47:23.106Z,2.70
2022-08-26T23:49:49.461Z,2.87
2022-08-26T23:52:34.249Z,2.90
2022-08-26T23:55:00.568Z,2.70
2022-08-26T23:57:26.942Z,2.90
2022-08-26T23:59:53.242Z,2.70
